Time;durP1;ratioP1;P1;durP2;ratioP2;P2;SDS_P1;SDS_P2;PMS_P1;PMS_P2;Temp;Humidity;BMP_temperature;BMP_pressure;BME280_temperature;BME280_humidity;BME280_pressure;Samples;Min_cycle;Max_cycle;Signal;HPM_P1;HPM_P2
2022/03/08 00:02:09;;;;;;;11.38;6.43;;;;;;;-1.79;60.21;100072.44;5052460;28;20411;-52
2022/03/08 00:04:35;;;;;;;10.38;6.68;;;;;;;-1.68;60.74;100064.38;5052743;28;20025;-51
2022/03/08 00:07:00;;;;;;;13.50;6.60;;;;;;;-1.47;59.58;100071.22;5049801;28;20509;-51
2022/03/08 00:09:27;;;;;;;11.20;6.30;;;;;;;-1.52;59.33;100064.59;5052387;28;20056;-54
2022/03/08 00:11:52;;;;;;;11.00;6.68;;;;;;;-1.50;59.51;100069.69;5050664;28;20021;-53
2022/03/08 00:14:18;;;;;;;12.63;6.57;;;;;;;-1.45;59.66;100074.53;5056418;28;20442;-53
2022/03/08 00:16:43;;;;;;;11.05;6.55;;;;;;;-1.64;60.29;100065.75;5059610;28;20033;-52
2022/03/08 00:19:09;;;;;;;9.98;6.28;;;;;;;-1.39;67.39;100068.72;5052824;28;20029;-52
2022/03/08 00:21:34;;;;;;;13.55;7.28;;;;;;;-1.40;60.98;100072.28;5031828;28;20033;-52
2022/03/08 00:23:59;;;;;;;13.07;6.43;;;;;;;-1.54;64.29;100065.72;5055972;28;20037;-53
2022/03/08 00:26:25;;;;;;;10.40;6.47;;;;;;;-1.64;62.30;100073.63;5053988;28;20455;-52
2022/03/08 00:28:50;;;;;;;13.00;6.20;;;;;;;-1.70;63.73;100065.47;5054102;28;20025;-51
2022/03/08 00:31:15;;;;;;;13.93;7.22;;;;;;;-1.61;61.15;100059.38;5058452;28;20029;-52
2022/03/08 00:33:41;;;;;;;11.05;6.90;;;;;;;-1.56;60.57;100060.59;5054333;28;20033;-51
2022/03/08 00:36:07;;;;;;;12.00;6.57;;;;;;;-1.60;61.00;100055.75;5048764;28;20526;-51
2022/03/08 00:38:32;;;;;;;11.82;6.38;;;;;;;-1.68;60.13;100059.13;5056270;28;20131;-51
2022/03/08 00:40:57;;;;;;;13.75;6.82;;;;;;;-1.77;60.26;100062.63;5050643;28;20041;-52
2022/03/08 00:43:23;;;;;;;11.23;6.40;;;;;;;-1.68;63.08;100053.03;5053398;28;20035;-52
2022/03/08 00:45:48;;;;;;;14.75;6.30;;;;;;;-1.97;62.33;100053.94;5054023;28;20492;-52
2022/03/08 00:48:14;;;;;;;11.20;7.40;;;;;;;-2.12;62.77;100053.56;5061518;28;20032;-51
2022/03/08 00:50:39;;;;;;;11.45;6.82;;;;;;;-1.85;63.02;100057.22;5049252;28;20033;-54
2022/03/08 00:53:05;;;;;;;11.75;6.22;;;;;;;-1.72;62.30;100057.75;5055306;28;20056;-52
2022/03/08 00:55:31;;;;;;;11.25;6.45;;;;;;;-1.72;61.96;100047.25;5059959;28;20063;-55
2022/03/08 00:57:56;;;;;;;9.95;6.60;;;;;;;-1.66;62.68;100046.66;5055198;28;20033;-54
2022/03/08 01:00:24;;;;;;;11.30;6.65;;;;;;;-1.65;61.46;100042.22;5049672;28;20035;-52
2022/03/08 01:02:50;;;;;;;12.95;7.40;;;;;;;-1.60;61.54;100040.84;5056060;28;20028;-52
2022/03/08 01:05:15;;;;;;;11.88;7.22;;;;;;;-1.47;61.69;100045.78;5051864;28;20025;-53
2022/03/08 01:07:41;;;;;;;12.45;6.40;;;;;;;-1.59;61.09;100039.84;5053697;28;20449;-51
2022/03/08 01:10:08;;;;;;;13.80;6.68;;;;;;;-1.42;59.78;100034.78;5056815;28;20444;-54
2022/03/08 01:12:33;;;;;;;13.52;7.50;;;;;;;-1.49;61.68;100028.50;5060699;28;20056;-54
2022/03/08 01:15:01;;;;;;;15.15;7.65;;;;;;;-1.31;63.91;100029.34;5057343;28;20498;-53
2022/03/08 01:17:27;;;;;;;11.10;7.15;;;;;;;-1.35;63.01;100027.97;5054215;28;20032;-55
2022/03/08 01:19:52;;;;;;;12.60;6.65;;;;;;;-1.35;63.74;100022.72;5052614;28;20032;-53
2022/03/08 01:22:17;;;;;;;12.65;7.88;;;;;;;-1.26;65.85;100028.91;5048062;28;20040;-52
2022/03/08 01:24:43;;;;;;;12.50;7.15;;;;;;;-1.37;64.49;100020.25;5053422;28;20368;-53
2022/03/08 01:27:08;;;;;;;11.88;7.20;;;;;;;-1.65;63.73;100019.38;5055600;28;20033;-52
2022/03/08 01:29:34;;;;;;;14.15;7.07;;;;;;;-1.65;65.94;100026.44;5058530;28;20029;-53
2022/03/08 01:31:59;;;;;;;11.48;7.03;;;;;;;-1.62;64.19;100016.50;5048847;28;20035;-52
2022/03/08 01:34:25;;;;;;;15.25;8.45;;;;;;;-1.91;62.82;100031.53;5056304;28;20112;-53
2022/03/08 01:36:50;;;;;;;12.60;7.32;;;;;;;-2.40;64.38;100032.44;5043635;28;20021;-53
2022/03/08 01:39:16;;;;;;;11.95;7.10;;;;;;;-2.36;64.53;100011.16;5051398;28;20029;-55
2022/03/08 01:41:41;;;;;;;13.45;7.25;;;;;;;-2.59;65.04;100024.56;5047481;28;20029;-52
2022/03/08 01:44:09;;;;;;;14.43;7.72;;;;;;;-2.76;65.68;100014.75;5057889;28;20020;-52
2022/03/08 01:46:36;;;;;;;15.98;7.18;;;;;;;-2.91;66.38;100014.31;5048288;28;20506;-54
2022/03/08 01:49:05;;;;;;;13.88;7.00;;;;;;;-2.86;65.98;100009.50;5056058;28;20395;-54
2022/03/08 01:51:30;;;;;;;11.77;6.82;;;;;;;-2.69;65.61;100015.88;5087082;28;20519;-53
2022/03/08 01:53:55;;;;;;;12.65;7.45;;;;;;;-2.93;66.56;100008.38;5044526;28;20150;-53
2022/03/08 01:56:21;;;;;;;13.80;7.13;;;;;;;-2.66;65.47;100012.97;5048031;28;20040;-54
2022/03/08 01:58:46;;;;;;;9.13;6.20;;;;;;;-2.48;64.31;99998.16;5021760;28;20028;-54
2022/03/08 02:01:12;;;;;;;13.20;7.45;;;;;;;-2.45;65.17;99997.88;5044323;28;20040;-51
2022/03/08 02:03:37;;;;;;;10.38;6.85;;;;;;;-2.25;65.57;100008.34;5051307;28;20040;-53
2022/03/08 02:06:03;;;;;;;11.35;6.60;;;;;;;-2.12;65.98;99987.88;5088490;28;20037;-54
2022/03/08 02:08:28;;;;;;;12.75;7.30;;;;;;;-2.11;65.73;99989.53;5052872;28;20032;-52
2022/03/08 02:10:54;;;;;;;11.13;7.00;;;;;;;-2.17;64.92;99987.50;5047676;28;20250;-54
2022/03/08 02:13:20;;;;;;;12.25;7.22;;;;;;;-2.26;69.66;99986.53;5048216;28;20044;-54
2022/03/08 02:15:49;;;;;;;13.48;7.15;;;;;;;-2.52;66.87;99991.56;5052680;28;20035;-55
2022/03/08 02:18:14;;;;;;;11.07;6.95;;;;;;;-2.76;67.89;99991.13;5042370;28;20144;-54
2022/03/08 02:20:40;;;;;;;13.40;7.25;;;;;;;-2.79;71.18;99984.38;5051906;28;20025;-53
2022/03/08 02:23:05;;;;;;;14.25;8.52;;;;;;;-2.60;67.37;99996.63;5052061;28;20542;-53
2022/03/08 02:25:30;;;;;;;14.82;8.30;;;;;;;-2.17;71.91;99990.13;5047975;28;20514;-52
2022/03/08 02:27:56;;;;;;;15.85;8.32;;;;;;;-1.94;68.32;99989.78;5049149;28;20041;-53
2022/03/08 02:30:22;;;;;;;14.23;8.18;;;;;;;-2.18;64.97;99983.19;5055835;28;20036;-51
2022/03/08 02:32:47;;;;;;;13.68;8.18;;;;;;;-2.00;64.72;99986.75;5047678;28;20029;-51
2022/03/08 02:35:15;;;;;;;15.18;8.65;;;;;;;-1.83;62.83;99977.28;5050859;28;20074;-53
2022/03/08 02:37:45;;;;;;;13.68;9.13;;;;;;;-1.85;62.54;99975.75;5053261;28;20111;-53
2022/03/08 02:40:15;;;;;;;12.23;6.97;;;;;;;-1.71;65.43;99971.84;5048100;28;20028;-53
2022/03/08 02:42:40;;;;;;;13.88;7.43;;;;;;;-2.24;64.42;99979.34;5047664;28;20028;-52
2022/03/08 02:45:06;;;;;;;12.52;7.47;;;;;;;-2.67;66.39;99967.53;5086360;28;20399;-54
2022/03/08 02:47:32;;;;;;;15.60;7.28;;;;;;;-2.90;66.72;99974.00;5049990;28;20171;-53
2022/03/08 02:49:57;;;;;;;15.80;8.18;;;;;;;-3.12;68.08;99975.06;5081704;28;20029;-53
2022/03/08 02:52:23;;;;;;;13.73;7.35;;;;;;;-3.36;71.75;99970.22;5046491;28;20049;-54
2022/03/08 02:54:48;;;;;;;15.48;9.15;;;;;;;-2.48;72.42;99963.22;5058433;28;20033;-53
2022/03/08 02:57:14;;;;;;;10.55;6.82;;;;;;;-2.36;67.30;99967.34;5054641;28;20021;-52
2022/03/08 02:59:39;;;;;;;11.80;6.43;;;;;;;-2.24;73.18;99965.38;5060138;28;20036;-51
2022/03/08 03:02:05;;;;;;;13.50;7.32;;;;;;;-2.72;66.17;99961.00;5051094;28;20045;-52
2022/03/08 03:04:30;;;;;;;13.93;7.72;;;;;;;-3.14;67.98;99956.88;5055770;28;20111;-51
2022/03/08 03:06:56;;;;;;;14.55;7.53;;;;;;;-3.16;68.71;99953.56;5051166;28;20144;-51
2022/03/08 03:09:21;;;;;;;13.07;7.20;;;;;;;-3.09;72.84;99940.72;5056699;28;20033;-52
2022/03/08 03:11:46;;;;;;;12.50;7.55;;;;;;;-3.22;68.43;99937.53;5046363;28;20105;-53
2022/03/08 03:14:12;;;;;;;13.65;7.57;;;;;;;-3.14;71.62;99935.91;5047968;28;20086;-52
2022/03/08 03:16:37;;;;;;;11.80;6.40;;;;;;;-2.82;67.56;99926.94;5047380;28;20844;-51
2022/03/08 03:19:03;;;;;;;11.80;6.95;;;;;;;-2.56;71.66;99928.97;5053697;28;20475;-54
2022/03/08 03:21:28;;;;;;;13.13;7.65;;;;;;;-3.25;69.13;99923.72;5062745;28;20039;-53
2022/03/08 03:23:54;;;;;;;20.63;9.63;;;;;;;-3.71;70.36;99919.91;5052683;28;20067;-51
2022/03/08 03:26:19;;;;;;;15.77;8.88;;;;;;;-3.93;72.16;99925.38;5054718;28;20102;-52
2022/03/08 03:28:44;;;;;;;18.35;9.70;;;;;;;-3.80;74.84;99919.88;5052524;28;20030;-52
2022/03/08 03:31:10;;;;;;;13.63;7.82;;;;;;;-3.94;73.93;99915.84;5059603;28;20379;-53
2022/03/08 03:33:35;;;;;;;11.95;6.95;;;;;;;-3.25;70.32;99909.78;5046177;28;20032;-54
2022/03/08 03:36:01;;;;;;;13.38;7.82;;;;;;;-3.43;69.50;99916.69;5056292;28;20035;-51
2022/03/08 03:38:26;;;;;;;21.55;9.57;;;;;;;-3.69;73.07;99922.41;5051717;28;20502;-52
2022/03/08 03:40:52;;;;;;;24.30;11.05;;;;;;;-4.01;72.79;99920.78;5050981;28;20021;-53
2022/03/08 03:43:17;;;;;;;22.45;11.15;;;;;;;-4.29;74.04;99914.47;5051236;28;20039;-54
2022/03/08 03:45:42;;;;;;;25.77;11.70;;;;;;;-4.50;75.32;99919.72;5050437;28;20051;-54
2022/03/08 03:48:08;;;;;;;21.75;11.77;;;;;;;-4.68;75.72;99924.69;5050003;28;20029;-52
2022/03/08 03:50:33;;;;;;;31.58;11.40;;;;;;;-4.75;77.34;99920.94;5045641;28;20048;-54
2022/03/08 03:52:59;;;;;;;22.55;11.52;;;;;;;-4.90;76.61;99924.81;5045844;28;20052;-54
2022/03/08 03:55:24;;;;;;;22.15;11.23;;;;;;;-5.02;77.50;99937.09;5052962;28;20025;-51
2022/03/08 03:57:50;;;;;;;22.55;11.05;;;;;;;-5.07;78.41;99937.47;5047426;28;20078;-54
2022/03/08 04:00:15;;;;;;;22.40;11.57;;;;;;;-5.10;77.89;99940.34;5053501;28;20033;-54
2022/03/08 04:02:41;;;;;;;22.90;11.05;;;;;;;-5.14;77.24;99927.63;5054756;28;20151;-52
2022/03/08 04:05:07;;;;;;;19.92;11.02;;;;;;;-5.00;77.13;99935.19;5049201;28;20394;-55
2022/03/08 04:07:33;;;;;;;18.08;9.48;;;;;;;-4.83;81.59;99925.97;5082268;28;20031;-54
2022/03/08 04:09:58;;;;;;;17.92;8.63;;;;;;;-4.50;75.23;99931.97;5055773;28;21383;-54
2022/03/08 04:12:24;;;;;;;12.45;7.55;;;;;;;-4.44;74.45;99928.81;5049956;28;20037;-51
2022/03/08 04:14:49;;;;;;;12.48;7.57;;;;;;;-4.50;74.17;99922.31;5056009;28;20025;-51
2022/03/08 04:17:14;;;;;;;15.70;7.97;;;;;;;-4.42;76.08;99924.28;5054644;28;20044;-53
2022/03/08 04:19:42;;;;;;;13.90;7.85;;;;;;;-4.24;73.93;99928.00;5058587;28;20043;-53
2022/03/08 04:22:07;;;;;;;14.63;8.35;;;;;;;-4.43;74.64;99925.25;5049165;28;20581;-52
2022/03/08 04:24:33;;;;;;;18.63;8.57;;;;;;;-4.51;74.66;99925.09;5054208;28;20045;-52
2022/03/08 04:26:58;;;;;;;16.02;7.70;;;;;;;-4.51;74.26;99918.06;5049512;28;20413;-55
2022/03/08 04:29:24;;;;;;;14.13;8.32;;;;;;;-4.56;74.76;99918.44;5054607;28;20037;-54
2022/03/08 04:31:49;;;;;;;14.60;7.72;;;;;;;-4.40;74.66;99914.53;5054073;28;20037;-54
2022/03/08 04:34:15;;;;;;;13.48;8.30;;;;;;;-4.30;74.72;99909.34;5055781;28;20462;-54
2022/03/08 04:36:40;;;;;;;15.18;8.05;;;;;;;-4.15;74.41;99905.41;5049807;28;20047;-53
2022/03/08 04:39:06;;;;;;;13.20;7.72;;;;;;;-4.00;81.41;99911.97;5057401;28;20122;-54
2022/03/08 04:41:31;;;;;;;14.50;8.35;;;;;;;-4.13;74.58;99908.75;5053623;28;20025;-53
2022/03/08 04:43:57;;;;;;;14.63;7.60;;;;;;;-4.23;74.49;99903.47;5049983;28;20537;-54
2022/03/08 04:46:22;;;;;;;13.88;7.03;;;;;;;-4.14;77.28;99907.09;5081540;28;20029;-53
2022/03/08 04:48:48;;;;;;;11.45;6.88;;;;;;;-4.18;74.14;99903.91;5050437;28;20559;-55
2022/03/08 04:51:13;;;;;;;16.60;8.75;;;;;;;-4.44;73.67;99893.03;5054399;28;20423;-54
2022/03/08 04:53:39;;;;;;;17.08;8.55;;;;;;;-4.71;75.92;99906.66;5048967;28;20515;-53
2022/03/08 04:56:04;;;;;;;14.90;8.48;;;;;;;-4.91;77.29;99907.47;5059802;28;20358;-51
2022/03/08 04:58:30;;;;;;;14.32;8.05;;;;;;;-4.97;77.73;99907.97;5039019;28;20032;-51
2022/03/08 05:00:55;;;;;;;15.45;9.18;;;;;;;-4.95;78.49;99901.66;5052052;28;20040;-52
2022/03/08 05:03:21;;;;;;;17.55;8.38;;;;;;;-5.09;77.40;99902.81;5055547;28;20056;-51
2022/03/08 05:05:46;;;;;;;15.48;8.48;;;;;;;-5.18;77.99;99898.31;5058962;28;20028;-52
2022/03/08 05:08:11;;;;;;;14.15;8.43;;;;;;;-5.16;79.03;99893.81;5064110;28;20125;-52
2022/03/08 05:10:37;;;;;;;17.15;9.05;;;;;;;-5.01;78.79;99897.75;5049250;28;20583;-54
2022/03/08 05:13:03;;;;;;;21.40;8.80;;;;;;;-4.77;78.48;99896.69;5050908;28;20041;-53
2022/03/08 05:15:29;;;;;;;16.63;9.05;;;;;;;-4.52;74.89;99886.78;5064485;28;20346;-51
2022/03/08 05:17:54;;;;;;;14.07;8.23;;;;;;;-4.36;74.49;99885.38;5073964;28;20037;-51
2022/03/08 05:20:20;;;;;;;13.43;7.40;;;;;;;-4.36;73.93;99882.75;5061983;28;20028;-55
2022/03/08 05:22:45;;;;;;;12.55;7.22;;;;;;;-4.18;73.68;99885.56;5052739;28;20029;-52
2022/03/08 05:25:11;;;;;;;13.57;7.28;;;;;;;-4.00;72.27;99877.09;5048557;28;20021;-53
2022/03/08 05:27:37;;;;;;;10.77;6.03;;;;;;;-3.74;71.27;99883.50;5058489;28;20482;-53
2022/03/08 05:30:04;;;;;;;14.48;7.22;;;;;;;-3.81;72.21;99887.63;5052348;28;20044;-53
2022/03/08 05:32:29;;;;;;;12.15;7.18;;;;;;;-3.34;71.67;99900.97;5048385;28;20094;-53
2022/03/08 05:34:55;;;;;;;16.02;8.10;;;;;;;-2.95;70.87;99900.13;5058288;28;20032;-57
2022/03/08 05:37:20;;;;;;;15.18;7.35;;;;;;;-2.89;69.41;99904.84;5052840;28;20094;-52
2022/03/08 05:39:45;;;;;;;13.30;7.93;;;;;;;-2.59;72.89;99903.84;5052333;28;20029;-53
2022/03/08 05:42:11;;;;;;;10.30;6.75;;;;;;;-3.22;68.12;99900.81;5059399;28;20032;-52
2022/03/08 05:44:38;;;;;;;11.02;6.38;;;;;;;-2.93;69.54;99895.56;5049516;28;20033;-52
2022/03/08 05:47:04;;;;;;;14.20;7.43;;;;;;;-3.28;68.37;99891.72;5055905;28;20040;-55
2022/03/08 05:49:30;;;;;;;16.45;8.00;;;;;;;-3.76;73.99;99893.28;5032708;28;20040;-54
2022/03/08 05:51:55;;;;;;;13.70;8.13;;;;;;;-3.87;74.54;99903.03;5056754;28;20095;-52
2022/03/08 05:54:21;;;;;;;12.20;6.95;;;;;;;-3.96;77.52;99895.03;5055241;28;20033;-51
2022/03/08 05:56:46;;;;;;;14.95;7.85;;;;;;;-3.92;80.13;99903.44;5058839;28;20161;-53
2022/03/08 05:59:12;;;;;;;13.60;8.20;;;;;;;-4.26;73.24;99902.91;5081327;28;20033;-55
2022/03/08 06:01:37;;;;;;;15.38;8.10;;;;;;;-4.24;74.99;99901.81;5053181;28;20410;-55
2022/03/08 06:04:03;;;;;;;14.43;7.55;;;;;;;-4.02;80.64;99910.44;5057795;28;20463;-54
2022/03/08 06:06:28;;;;;;;15.27;7.32;;;;;;;-3.72;75.73;99917.41;5047359;28;20065;-52
2022/03/08 06:08:54;;;;;;;13.07;8.05;;;;;;;-3.06;73.18;99929.97;5060416;28;20036;-51
2022/03/08 06:11:19;;;;;;;14.27;7.80;;;;;;;-2.76;68.92;99931.59;5053077;28;20028;-53
2022/03/08 06:13:44;;;;;;;16.23;9.88;;;;;;;-2.57;67.51;99930.78;5047079;28;20057;-52
2022/03/08 06:16:10;;;;;;;14.50;8.70;;;;;;;-2.55;66.23;99939.31;5055061;28;20355;-53
2022/03/08 06:18:36;;;;;;;18.90;11.00;;;;;;;-2.52;66.58;99944.31;5053359;28;20486;-52
2022/03/08 06:21:01;;;;;;;13.48;8.85;;;;;;;-2.74;66.68;99944.59;5057363;28;20035;-54
2022/03/08 06:23:27;;;;;;;14.63;8.55;;;;;;;-2.66;66.41;99945.53;5058928;28;20032;-53
2022/03/08 06:25:52;;;;;;;15.38;9.00;;;;;;;-2.54;66.66;99946.22;5051133;28;20025;-55
2022/03/08 06:28:17;;;;;;;26.98;12.90;;;;;;;-2.68;66.65;99954.53;5050524;28;20037;-51
2022/03/08 06:30:43;;;;;;;109.18;40.85;;;;;;;-2.74;67.04;99963.78;5048657;28;20021;-52
2022/03/08 06:33:08;;;;;;;34.47;15.25;;;;;;;-2.99;70.11;99959.91;5052724;28;20033;-50
2022/03/08 06:35:34;;;;;;;18.50;9.60;;;;;;;-1.97;67.81;99957.56;5053290;28;20078;-52
2022/03/08 06:37:59;;;;;;;22.48;11.63;;;;;;;-0.23;60.39;99962.56;5057196;28;20032;-52
2022/03/08 06:40:25;;;;;;;13.15;8.43;;;;;;;1.70;53.26;99967.91;5058385;28;20027;-52
2022/03/08 06:42:50;;;;;;;27.70;12.55;;;;;;;2.73;51.15;99968.91;5063279;28;20465;-51
2022/03/08 06:45:16;;;;;;;20.70;9.65;;;;;;;4.04;50.42;99970.53;5048964;28;20576;-54
2022/03/08 06:47:41;;;;;;;22.75;12.32;;;;;;;3.45;46.65;99963.31;5052062;28;20032;-52
2022/03/08 06:50:07;;;;;;;28.15;13.05;;;;;;;3.61;46.39;99963.16;5054601;28;20042;-51
2022/03/08 06:52:33;;;;;;;25.63;13.02;;;;;;;4.62;44.52;99962.72;5050874;28;20136;-53
2022/03/08 06:54:58;;;;;;;18.75;10.15;;;;;;;4.51;43.71;99956.91;5050975;28;20087;-52
2022/03/08 06:57:25;;;;;;;22.48;10.15;;;;;;;5.14;43.00;99967.00;5064994;28;20024;-52
2022/03/08 06:59:50;;;;;;;20.40;11.45;;;;;;;4.83;42.43;99957.50;5062163;28;20043;-55
2022/03/08 07:02:16;;;;;;;36.33;18.65;;;;;;;5.63;40.81;99974.22;5048395;28;20025;-54
2022/03/08 07:04:41;;;;;;;51.13;26.52;;;;;;;4.76;42.47;99962.72;5056116;28;20479;-54
2022/03/08 07:07:06;;;;;;;29.70;17.73;;;;;;;4.93;42.92;99968.63;5059602;28;20450;-51
2022/03/08 07:09:32;;;;;;;50.88;29.50;;;;;;;3.73;44.35;99970.69;5056280;28;20098;-53
2022/03/08 07:11:57;;;;;;;176.52;85.05;;;;;;;3.94;44.43;99968.16;5057887;28;20445;-51
2022/03/08 07:14:23;;;;;;;35.95;19.67;;;;;;;3.63;45.89;99966.47;5059939;28;20447;-53
2022/03/08 07:16:48;;;;;;;33.10;16.20;;;;;;;3.79;45.10;99960.16;5047273;28;20052;-55
2022/03/08 07:19:14;;;;;;;33.92;17.60;;;;;;;3.31;46.72;99964.06;5049524;28;20479;-55
2022/03/08 07:21:40;;;;;;;36.33;19.35;;;;;;;2.99;48.54;99963.28;5035387;28;20029;-52
2022/03/08 07:24:06;;;;;;;39.63;20.27;;;;;;;2.72;49.34;99961.94;5055645;28;20028;-50
2022/03/08 07:26:31;;;;;;;37.50;18.40;;;;;;;2.80;49.03;99964.56;5052964;28;20459;-54
2022/03/08 07:28:57;;;;;;;35.65;18.58;;;;;;;3.46;47.88;99959.66;5048724;28;20032;-54
2022/03/08 07:31:22;;;;;;;31.40;15.95;;;;;;;4.04;45.33;99962.59;5047362;28;20539;-53
2022/03/08 07:33:48;;;;;;;72.05;33.00;;;;;;;4.00;46.40;99951.53;5052405;28;20037;-54
2022/03/08 07:36:13;;;;;;;46.22;22.58;;;;;;;4.02;46.20;99959.28;5056757;28;20024;-55
2022/03/08 07:38:39;;;;;;;42.58;20.90;;;;;;;4.86;44.51;99961.59;5053005;28;20025;-54
2022/03/08 07:41:04;;;;;;;35.20;16.42;;;;;;;5.07;44.59;99960.81;5056073;28;20546;-52
2022/03/08 07:43:30;;;;;;;33.40;17.33;;;;;;;4.98;42.60;99968.06;5087485;28;20506;-53
2022/03/08 07:45:55;;;;;;;38.15;20.92;;;;;;;4.59;45.02;99965.78;5054998;28;20360;-53
2022/03/08 07:48:21;;;;;;;21.08;12.35;;;;;;;4.82;42.85;99971.78;5055180;28;20029;-53
2022/03/08 07:50:46;;;;;;;19.98;12.00;;;;;;;4.70;43.42;99967.97;5056319;28;20056;-54
2022/03/08 07:53:12;;;;;;;20.17;11.05;;;;;;;4.06;44.60;99966.69;5057971;28;20639;-53
2022/03/08 07:55:37;;;;;;;30.20;11.43;;;;;;;2.86;47.35;99957.75;5048290;28;20020;-54
2022/03/08 07:58:03;;;;;;;27.88;13.95;;;;;;;2.62;48.48;99962.19;5056536;28;20430;-53
2022/03/08 08:00:29;;;;;;;19.80;10.55;;;;;;;2.75;48.36;99964.28;5052657;28;20773;-53
2022/03/08 08:02:54;;;;;;;21.38;12.98;;;;;;;2.43;48.97;99968.72;5058347;28;20044;-53
2022/03/08 08:05:20;;;;;;;23.73;10.73;;;;;;;3.20;47.61;99963.50;5054048;28;20051;-51
2022/03/08 08:07:46;;;;;;;21.58;11.50;;;;;;;2.80;47.86;99965.41;5062235;28;20103;-53
2022/03/08 08:10:11;;;;;;;20.70;11.23;;;;;;;3.30;47.69;99962.44;5053732;28;20040;-52
2022/03/08 08:12:37;;;;;;;18.45;9.88;;;;;;;2.96;48.60;99968.94;5053995;28;20049;-53
2022/03/08 08:15:03;;;;;;;24.38;12.15;;;;;;;3.32;47.92;99963.91;5058811;28;20032;-52
2022/03/08 08:17:29;;;;;;;18.10;11.98;;;;;;;3.15;47.59;99971.16;5059250;28;20029;-52
2022/03/08 08:19:54;;;;;;;22.90;9.73;;;;;;;3.44;47.75;99962.50;5059841;28;20033;-53
2022/03/08 08:22:20;;;;;;;19.73;11.13;;;;;;;3.51;47.94;99964.41;5056678;28;20036;-51
2022/03/08 08:24:45;;;;;;;18.80;12.10;;;;;;;2.96;47.95;99963.66;5053862;28;20482;-53
2022/03/08 08:27:10;;;;;;;23.17;11.10;;;;;;;3.46;47.77;99970.25;5061706;28;20491;-49
2022/03/08 08:29:36;;;;;;;19.92;10.75;;;;;;;3.19;47.99;99959.19;5059329;28;20033;-53
2022/03/08 08:32:01;;;;;;;20.40;11.05;;;;;;;4.03;48.08;99961.78;5059512;28;20032;-53
2022/03/08 08:34:27;;;;;;;17.10;9.23;;;;;;;3.52;47.93;99966.91;5056084;28;20048;-52
2022/03/08 08:36:52;;;;;;;14.68;9.38;;;;;;;3.91;46.81;99957.91;5057930;28;20032;-53
2022/03/08 08:39:17;;;;;;;17.45;10.85;;;;;;;3.52;47.48;99966.06;5060908;28;20036;-54
2022/03/08 08:41:43;;;;;;;17.80;9.27;;;;;;;3.39;47.46;99969.31;5092096;28;20025;-53
2022/03/08 08:44:09;;;;;;;22.67;12.70;;;;;;;3.78;46.85;99955.06;5050021;28;20793;-52
2022/03/08 08:46:35;;;;;;;18.63;10.50;;;;;;;3.77;46.87;99948.09;5056959;28;20121;-52
2022/03/08 08:49:00;;;;;;;13.80;8.48;;;;;;;3.69;46.14;99949.00;5068142;28;20040;-53
2022/03/08 08:51:26;;;;;;;21.38;9.75;;;;;;;3.45;46.96;99958.81;5056995;28;20131;-54
2022/03/08 08:53:51;;;;;;;15.98;9.63;;;;;;;4.36;45.78;99964.06;5057619;28;20478;-53
2022/03/08 08:56:16;;;;;;;17.20;10.65;;;;;;;3.64;46.57;99957.53;5048914;28;20363;-52
2022/03/08 08:58:42;;;;;;;19.23;10.40;;;;;;;4.40;45.58;99954.72;5049319;28;20452;-53
2022/03/08 09:01:08;;;;;;;16.95;9.27;;;;;;;4.31;44.86;99963.78;5051306;28;20029;-51
2022/03/08 09:03:33;;;;;;;15.48;9.25;;;;;;;4.07;45.75;99970.19;5052149;28;20036;-52
2022/03/08 09:05:59;;;;;;;20.45;10.68;;;;;;;3.75;45.51;99958.09;5053650;28;20028;-51
2022/03/08 09:08:24;;;;;;;15.93;8.90;;;;;;;4.68;44.25;99954.03;5051050;28;20035;-51
2022/03/08 09:10:53;;;;;;;16.02;8.88;;;;;;;3.77;45.42;99948.94;5050972;28;20319;-53
2022/03/08 09:13:19;;;;;;;19.98;10.30;;;;;;;4.39;44.49;99941.63;5054881;28;20040;-54
2022/03/08 09:15:44;;;;;;;18.17;9.23;;;;;;;4.65;43.69;99949.13;5051876;28;20062;-51
2022/03/08 09:18:10;;;;;;;14.95;9.43;;;;;;;4.71;43.64;99943.03;5053015;28;20029;-51
2022/03/08 09:20:35;;;;;;;17.95;9.68;;;;;;;5.32;43.28;99945.31;5057741;28;20020;-51
2022/03/08 09:23:01;;;;;;;12.90;8.63;;;;;;;4.93;42.46;99943.91;5086274;28;20039;-51
2022/03/08 09:25:26;;;;;;;25.67;9.57;;;;;;;5.55;42.38;99939.78;5054108;28;20025;-51
2022/03/08 09:27:52;;;;;;;15.43;9.25;;;;;;;4.83;43.07;99949.50;5054100;28;20025;-53
2022/03/08 09:30:17;;;;;;;13.40;8.80;;;;;;;4.88;42.62;99936.50;5051507;28;20086;-52
2022/03/08 09:32:43;;;;;;;14.25;8.30;;;;;;;4.69;43.10;99939.75;5047128;28;20756;-51
2022/03/08 09:35:08;;;;;;;21.13;8.68;;;;;;;4.92;43.11;99940.44;5057207;28;20495;-53
2022/03/08 09:37:34;;;;;;;19.25;8.70;;;;;;;5.26;42.33;99936.25;5055468;28;20108;-51
2022/03/08 09:40:00;;;;;;;13.32;8.13;;;;;;;5.49;42.09;99930.75;5055880;28;20044;-53
2022/03/08 09:42:25;;;;;;;15.45;8.40;;;;;;;5.11;41.48;99938.16;5053130;28;20025;-53
2022/03/08 09:44:51;;;;;;;14.50;8.32;;;;;;;5.65;41.22;99937.63;5047592;28;20198;-52
2022/03/08 09:47:16;;;;;;;16.13;8.50;;;;;;;5.14;42.11;99928.00;5054117;28;20039;-52
2022/03/08 09:49:42;;;;;;;12.90;8.30;;;;;;;4.91;42.11;99925.47;5059038;28;20047;-51
2022/03/08 09:52:07;;;;;;;14.73;8.75;;;;;;;5.32;41.78;99926.72;5049713;28;20041;-51
2022/03/08 09:54:33;;;;;;;14.55;7.75;;;;;;;5.50;41.11;99923.59;5054247;28;20360;-51
2022/03/08 09:56:58;;;;;;;16.98;8.27;;;;;;;4.97;40.45;99927.41;5036739;28;20493;-51
2022/03/08 09:59:29;;;;;;;10.57;6.85;;;;;;;5.06;41.49;99916.66;5047282;28;21669;-54
2022/03/08 10:01:55;;;;;;;11.20;6.85;;;;;;;5.49;40.81;99920.13;5055878;28;20040;-53
2022/03/08 10:04:20;;;;;;;14.32;8.02;;;;;;;5.51;40.75;99922.56;5054352;28;20472;-50
2022/03/08 10:06:50;;;;;;;10.82;6.18;;;;;;;5.84;39.76;99928.13;5047777;28;20036;-53
2022/03/08 10:09:20;;;;;;;12.57;6.87;;;;;;;5.31;40.03;99919.75;5052286;28;20025;-53
2022/03/08 10:11:50;;;;;;;14.50;7.18;;;;;;;5.45;39.29;99918.03;5046303;28;20316;-51
2022/03/08 10:14:37;;;;;;;14.45;7.82;;;;;;;5.58;39.29;99923.44;5051069;28;20029;-51
2022/03/08 10:17:04;;;;;;;15.82;8.50;;;;;;;5.73;38.88;99912.72;5054917;28;20483;-53
2022/03/08 10:19:29;;;;;;;14.60;6.90;;;;;;;5.62;38.74;99924.72;5052169;28;20029;-51
2022/03/08 10:21:57;;;;;;;13.07;8.38;;;;;;;5.36;38.83;99926.13;5054429;28;20033;-50
2022/03/08 10:24:29;;;;;;;13.95;7.10;;;;;;;5.55;39.11;99902.56;5053225;28;20377;-52
2022/03/08 10:27:02;;;;;;;10.90;6.03;;;;;;;5.60;38.38;99922.22;5051343;28;20040;-51
2022/03/08 10:29:32;;;;;;;10.45;5.82;;;;;;;5.52;38.67;99932.19;5050270;28;20039;-53
2022/03/08 10:32:15;;;;;;;10.25;6.38;;;;;;;5.90;38.43;99906.06;5055957;28;20037;-52
2022/03/08 10:34:41;;;;;;;8.32;4.45;;;;;;;5.92;37.47;99904.03;5052408;28;20036;-54
2022/03/08 10:37:13;;;;;;;8.20;4.70;;;;;;;5.98;37.80;99913.09;5045935;28;20036;-54
2022/03/08 10:39:59;;;;;;;10.07;6.50;;;;;;;6.07;37.61;99901.28;5051796;28;20717;-54
2022/03/08 10:42:32;;;;;;;7.30;4.60;;;;;;;5.97;37.24;99885.69;5054437;28;20155;-52
2022/03/08 10:45:15;;;;;;;12.30;7.90;;;;;;;5.88;37.75;99901.97;5047542;28;20075;-52
2022/03/08 10:47:41;;;;;;;12.30;7.63;;;;;;;5.86;38.05;99890.69;5054851;28;20029;-53
2022/03/08 10:50:07;;;;;;;12.90;6.10;;;;;;;6.26;36.53;99895.25;5055978;28;20097;-51
2022/03/08 10:52:37;;;;;;;11.80;5.85;;;;;;;5.64;37.82;99901.38;5051696;28;20563;-52
2022/03/08 10:55:19;;;;;;;11.00;6.43;;;;;;;5.99;37.56;99872.16;5050060;28;20068;-53
2022/03/08 10:57:50;;;;;;;11.25;6.22;;;;;;;6.03;37.75;99871.56;5052814;28;20035;-52
2022/03/08 11:00:17;;;;;;;11.93;7.78;;;;;;;5.73;37.58;99856.84;5056625;28;20104;-53
2022/03/08 11:02:53;;;;;;;11.95;6.97;;;;;;;6.03;37.90;99870.75;5053355;28;20086;-51
2022/03/08 11:05:20;;;;;;;10.40;5.28;;;;;;;6.16;37.61;99868.16;5048667;28;20380;-51
2022/03/08 11:07:45;;;;;;;12.63;7.88;;;;;;;6.00;36.80;99853.34;5050826;28;20032;-53
2022/03/08 11:10:11;;;;;;;9.57;5.97;;;;;;;5.96;37.38;99864.56;5054513;28;20032;-53
2022/03/08 11:12:37;;;;;;;12.82;5.78;;;;;;;6.30;36.96;99853.06;5055968;28;20028;-53
2022/03/08 11:15:04;;;;;;;11.50;6.60;;;;;;;6.20;36.76;99853.44;5054575;28;20048;-52
2022/03/08 11:17:29;;;;;;;13.23;7.85;;;;;;;5.88;37.86;99859.41;5056912;28;20182;-52
2022/03/08 11:19:55;;;;;;;10.00;6.32;;;;;;;5.92;37.87;99850.81;5058567;28;20044;-51